createdAt,value
2022-10-21T00:03:33.736Z,100
2022-10-21T00:13:33.636Z,100
2022-10-21T00:23:33.597Z,100
2022-10-21T00:33:33.588Z,100
2022-10-21T00:43:33.624Z,100
2022-10-21T00:53:33.625Z,100
2022-10-21T01:03:33.629Z,100
2022-10-21T01:13:33.591Z,100
2022-10-21T01:23:33.599Z,100
2022-10-21T01:33:33.583Z,100
2022-10-21T01:43:33.612Z,100
2022-10-21T01:53:33.583Z,100
2022-10-21T02:03:33.595Z,100
2022-10-21T02:13:33.550Z,100
2022-10-21T02:23:33.605Z,100
2022-10-21T02:33:33.572Z,100
2022-10-21T02:43:33.577Z,100
2022-10-21T02:53:33.554Z,100
2022-10-21T03:03:33.594Z,100
2022-10-21T03:13:33.543Z,100
2022-10-21T03:23:33.613Z,100
2022-10-21T03:33:33.556Z,100
2022-10-21T03:43:33.589Z,100
2022-10-21T03:53:48.831Z,100
2022-10-21T04:03:33.576Z,100
2022-10-21T04:13:33.557Z,100
2022-10-21T04:23:33.562Z,100
2022-10-21T04:33:33.527Z,100
2022-10-21T04:43:33.571Z,100
2022-10-21T04:53:33.544Z,100
2022-10-21T05:03:33.564Z,100
2022-10-21T05:13:33.545Z,100
2022-10-21T05:23:33.558Z,100
2022-10-21T05:33:33.531Z,100
2022-10-21T05:43:33.572Z,100
2022-10-21T05:53:33.524Z,100
2022-10-21T06:03:33.558Z,100
2022-10-21T06:13:33.524Z,100
2022-10-21T06:23:33.563Z,100
2022-10-21T06:33:33.504Z,100
2022-10-21T06:43:33.572Z,100
2022-10-21T06:53:34.090Z,100
2022-10-21T07:03:33.534Z,100
2022-10-21T07:13:33.531Z,100
2022-10-21T07:23:33.528Z,100
2022-10-21T07:33:33.482Z,100
2022-10-21T07:43:33.532Z,100
2022-10-21T07:53:33.481Z,100
2022-10-21T08:03:33.504Z,100
2022-10-21T08:13:33.491Z,100
2022-10-21T08:23:33.508Z,100
2022-10-21T08:33:33.477Z,100
2022-10-21T08:43:33.486Z,100
2022-10-21T08:53:33.444Z,100
2022-10-21T09:03:33.493Z,100
2022-10-21T09:13:33.433Z,100
2022-10-21T09:33:33.423Z,100
2022-10-21T09:43:33.449Z,100
2022-10-21T09:53:33.438Z,100
2022-10-21T10:03:33.445Z,100
2022-10-21T10:13:33.386Z,100
2022-10-21T10:23:33.462Z,100
2022-10-21T10:33:33.408Z,100
2022-10-21T10:43:33.540Z,100
2022-10-21T10:53:33.387Z,100
2022-10-21T11:03:35.124Z,100
2022-10-21T11:13:33.388Z,100
2022-10-21T11:23:33.464Z,100
2022-10-21T11:33:33.324Z,100
2022-10-21T11:43:33.492Z,100
2022-10-21T11:53:33.362Z,100
2022-10-21T12:03:33.447Z,100
2022-10-21T12:13:33.316Z,100
2022-10-21T12:23:33.444Z,100
2022-10-21T12:33:33.312Z,100
2022-10-21T12:43:33.332Z,100
2022-10-21T12:53:33.312Z,100
2022-10-21T13:03:33.318Z,100
2022-10-21T13:13:33.276Z,100
2022-10-21T13:23:33.292Z,100
2022-10-21T13:33:33.272Z,100
2022-10-21T13:43:33.292Z,100
2022-10-21T13:53:33.238Z,100
2022-10-21T14:03:33.255Z,100
2022-10-21T14:13:33.239Z,100
2022-10-21T14:23:33.289Z,100
2022-10-21T14:33:33.204Z,100
2022-10-21T14:43:33.229Z,100
2022-10-21T14:53:33.192Z,100
2022-10-21T15:03:38.167Z,100
2022-10-21T15:13:33.192Z,100
2022-10-21T15:23:33.206Z,82
2022-10-21T15:33:33.153Z,70
2022-10-21T15:43:33.202Z,66
2022-10-21T15:53:33.139Z,61
2022-10-21T16:03:33.147Z,61
2022-10-21T16:13:33.126Z,62
2022-10-21T16:23:33.153Z,61
2022-10-21T16:33:33.095Z,60
2022-10-21T16:43:33.126Z,62
2022-10-21T16:53:33.113Z,61
2022-10-21T17:03:33.091Z,62
2022-10-21T17:13:33.073Z,63
2022-10-21T17:23:33.212Z,67
2022-10-21T17:33:33.062Z,75
2022-10-21T17:43:33.072Z,80
2022-10-21T17:53:33.043Z,86
2022-10-21T18:03:33.034Z,92
2022-10-21T18:13:33.043Z,95
2022-10-21T18:23:33.037Z,100
2022-10-21T18:33:33.019Z,100
2022-10-21T18:43:33.012Z,100
2022-10-21T18:53:33.006Z,100
2022-10-21T19:03:32.999Z,100
2022-10-21T19:13:33.022Z,98
2022-10-21T19:23:32.996Z,97
2022-10-21T19:33:32.978Z,98
2022-10-21T19:43:33.017Z,99
2022-10-21T19:53:32.967Z,99
2022-10-21T20:03:32.963Z,99
2022-10-21T20:13:32.926Z,96
2022-10-21T20:23:32.958Z,94
2022-10-21T20:33:32.921Z,94
2022-10-21T20:43:32.928Z,95
2022-10-21T20:53:32.882Z,95
2022-10-21T21:03:32.900Z,96
2022-10-21T21:13:32.907Z,97
2022-10-21T21:23:32.914Z,99
2022-10-21T21:33:32.871Z,100
2022-10-21T21:43:32.882Z,100
2022-10-21T21:53:32.866Z,98
2022-10-21T22:03:32.879Z,100
2022-10-21T22:13:32.841Z,100
2022-10-21T22:23:32.859Z,100
2022-10-21T22:33:32.933Z,100
2022-10-21T22:43:32.833Z,100
2022-10-21T22:53:32.803Z,100
2022-10-21T23:03:32.850Z,100
2022-10-21T23:13:32.798Z,100
2022-10-21T23:23:32.783Z,100
2022-10-21T23:33:32.802Z,100
2022-10-21T23:43:32.759Z,100
2022-10-21T23:53:32.776Z,100
